sensor_id;sensor_type;location;lat;lon;timestamp;P1;durP1;ratioP1;P2;durP2;ratioP2
49852;SDS011;35751;48.072;11.688;2023-02-12T00:00:04;24.50;;;14.05;;
49852;SDS011;35751;48.072;11.688;2023-02-12T00:02:32;19.80;;;12.63;;
49852;SDS011;35751;48.072;11.688;2023-02-12T00:04:58;20.77;;;13.18;;
49852;SDS011;35751;48.072;11.688;2023-02-12T00:07:23;26.38;;;13.75;;
49852;SDS011;35751;48.072;11.688;2023-02-12T00:09:48;20.92;;;12.73;;
49852;SDS011;35751;48.072;11.688;2023-02-12T00:12:14;20.23;;;13.70;;
49852;SDS011;35751;48.072;11.688;2023-02-12T00:14:40;25.77;;;14.90;;
49852;SDS011;35751;48.072;11.688;2023-02-12T00:17:05;20.80;;;12.88;;
49852;SDS011;35751;48.072;11.688;2023-02-12T00:19:31;22.75;;;14.07;;
49852;SDS011;35751;48.072;11.688;2023-02-12T00:21:56;26.15;;;13.93;;
49852;SDS011;35751;48.072;11.688;2023-02-12T00:24:22;24.65;;;14.48;;
49852;SDS011;35751;48.072;11.688;2023-02-12T00:26:47;25.17;;;14.82;;
49852;SDS011;35751;48.072;11.688;2023-02-12T00:29:14;24.92;;;14.07;;
49852;SDS011;35751;48.072;11.688;2023-02-12T00:31:40;23.02;;;13.55;;
49852;SDS011;35751;48.072;11.688;2023-02-12T00:34:06;25.15;;;15.18;;
49852;SDS011;35751;48.072;11.688;2023-02-12T00:36:31;22.50;;;12.95;;
49852;SDS011;35751;48.072;11.688;2023-02-12T00:38:57;25.38;;;14.95;;
49852;SDS011;35751;48.072;11.688;2023-02-12T00:41:22;24.92;;;14.10;;
49852;SDS011;35751;48.072;11.688;2023-02-12T00:43:49;25.17;;;14.38;;
49852;SDS011;35751;48.072;11.688;2023-02-12T00:46:15;22.95;;;13.18;;
49852;SDS011;35751;48.072;11.688;2023-02-12T00:48:40;27.77;;;13.93;;
49852;SDS011;35751;48.072;11.688;2023-02-12T00:51:06;24.35;;;14.18;;
49852;SDS011;35751;48.072;11.688;2023-02-12T00:53:32;23.63;;;13.65;;
49852;SDS011;35751;48.072;11.688;2023-02-12T00:55:58;20.35;;;14.18;;
49852;SDS011;35751;48.072;11.688;2023-02-12T00:58:24;26.33;;;15.40;;
49852;SDS011;35751;48.072;11.688;2023-02-12T01:00:49;23.08;;;13.75;;
49852;SDS011;35751;48.072;11.688;2023-02-12T01:03:15;22.05;;;13.82;;
49852;SDS011;35751;48.072;11.688;2023-02-12T01:05:41;22.02;;;12.52;;
49852;SDS011;35751;48.072;11.688;2023-02-12T01:08:06;18.20;;;11.80;;
49852;SDS011;35751;48.072;11.688;2023-02-12T01:10:32;23.25;;;13.82;;
49852;SDS011;35751;48.072;11.688;2023-02-12T01:12:57;22.63;;;13.00;;
49852;SDS011;35751;48.072;11.688;2023-02-12T01:15:22;20.63;;;13.68;;
49852;SDS011;35751;48.072;11.688;2023-02-12T01:17:50;30.63;;;13.63;;
49852;SDS011;35751;48.072;11.688;2023-02-12T01:20:17;20.70;;;13.10;;
49852;SDS011;35751;48.072;11.688;2023-02-12T01:22:44;24.58;;;12.70;;
49852;SDS011;35751;48.072;11.688;2023-02-12T01:25:10;24.52;;;14.55;;
49852;SDS011;35751;48.072;11.688;2023-02-12T01:27:36;23.23;;;13.23;;
49852;SDS011;35751;48.072;11.688;2023-02-12T01:30:01;20.50;;;12.23;;
49852;SDS011;35751;48.072;11.688;2023-02-12T01:32:27;27.73;;;14.48;;
49852;SDS011;35751;48.072;11.688;2023-02-12T01:34:53;25.52;;;13.57;;
49852;SDS011;35751;48.072;11.688;2023-02-12T01:37:19;27.42;;;13.20;;
49852;SDS011;35751;48.072;11.688;2023-02-12T01:39:44;25.55;;;14.18;;
49852;SDS011;35751;48.072;11.688;2023-02-12T01:42:13;27.58;;;14.32;;
49852;SDS011;35751;48.072;11.688;2023-02-12T01:44:42;23.83;;;13.48;;
49852;SDS011;35751;48.072;11.688;2023-02-12T01:47:16;23.30;;;12.63;;
49852;SDS011;35751;48.072;11.688;2023-02-12T01:49:42;20.75;;;12.35;;
49852;SDS011;35751;48.072;11.688;2023-02-12T01:52:13;22.73;;;11.93;;
49852;SDS011;35751;48.072;11.688;2023-02-12T01:54:42;22.08;;;13.55;;
49852;SDS011;35751;48.072;11.688;2023-02-12T01:57:07;20.27;;;11.93;;
49852;SDS011;35751;48.072;11.688;2023-02-12T01:59:34;20.23;;;11.75;;
49852;SDS011;35751;48.072;11.688;2023-02-12T02:02:01;22.42;;;12.35;;
49852;SDS011;35751;48.072;11.688;2023-02-12T02:04:28;22.88;;;12.57;;
49852;SDS011;35751;48.072;11.688;2023-02-12T02:06:58;18.83;;;12.70;;
49852;SDS011;35751;48.072;11.688;2023-02-12T02:09:27;25.88;;;13.70;;
49852;SDS011;35751;48.072;11.688;2023-02-12T02:11:56;21.10;;;12.55;;
49852;SDS011;35751;48.072;11.688;2023-02-12T02:14:40;21.13;;;12.63;;
49852;SDS011;35751;48.072;11.688;2023-02-12T02:17:16;28.15;;;13.23;;
49852;SDS011;35751;48.072;11.688;2023-02-12T02:25:38;20.30;;;12.30;;
49852;SDS011;35751;48.072;11.688;2023-02-12T02:31:03;21.35;;;13.43;;
49852;SDS011;35751;48.072;11.688;2023-02-12T02:36:23;25.85;;;12.68;;
49852;SDS011;35751;48.072;11.688;2023-02-12T02:41:54;26.98;;;14.02;;
49852;SDS011;35751;48.072;11.688;2023-02-12T02:44:25;22.25;;;13.55;;
49852;SDS011;35751;48.072;11.688;2023-02-12T02:46:55;18.13;;;11.98;;
49852;SDS011;35751;48.072;11.688;2023-02-12T02:49:23;23.48;;;14.05;;
49852;SDS011;35751;48.072;11.688;2023-02-12T02:51:55;20.98;;;12.70;;
49852;SDS011;35751;48.072;11.688;2023-02-12T02:54:36;20.70;;;13.10;;
49852;SDS011;35751;48.072;11.688;2023-02-12T02:57:05;19.75;;;12.82;;
49852;SDS011;35751;48.072;11.688;2023-02-12T02:59:36;21.50;;;13.38;;
49852;SDS011;35751;48.072;11.688;2023-02-12T03:02:28;18.20;;;11.40;;
49852;SDS011;35751;48.072;11.688;2023-02-12T03:04:54;22.67;;;14.10;;
49852;SDS011;35751;48.072;11.688;2023-02-12T03:07:27;21.13;;;11.90;;
49852;SDS011;35751;48.072;11.688;2023-02-12T03:10:30;26.58;;;14.40;;
49852;SDS011;35751;48.072;11.688;2023-02-12T03:13:00;19.73;;;13.13;;
49852;SDS011;35751;48.072;11.688;2023-02-12T03:18:37;23.75;;;12.02;;
49852;SDS011;35751;48.072;11.688;2023-02-12T03:21:08;21.50;;;12.48;;
49852;SDS011;35751;48.072;11.688;2023-02-12T03:23:39;21.45;;;12.75;;
49852;SDS011;35751;48.072;11.688;2023-02-12T03:26:31;19.65;;;13.10;;
49852;SDS011;35751;48.072;11.688;2023-02-12T03:29:02;25.33;;;14.50;;
49852;SDS011;35751;48.072;11.688;2023-02-12T03:37:04;22.10;;;13.55;;
49852;SDS011;35751;48.072;11.688;2023-02-12T03:39:41;22.13;;;12.88;;
49852;SDS011;35751;48.072;11.688;2023-02-12T03:52:20;21.83;;;14.57;;
49852;SDS011;35751;48.072;11.688;2023-02-12T03:54:45;23.85;;;13.35;;
49852;SDS011;35751;48.072;11.688;2023-02-12T03:57:20;21.10;;;11.55;;
49852;SDS011;35751;48.072;11.688;2023-02-12T04:02:13;19.80;;;13.27;;
49852;SDS011;35751;48.072;11.688;2023-02-12T04:04:40;24.67;;;14.60;;
49852;SDS011;35751;48.072;11.688;2023-02-12T04:07:05;21.65;;;13.85;;
49852;SDS011;35751;48.072;11.688;2023-02-12T04:09:31;23.08;;;11.90;;
49852;SDS011;35751;48.072;11.688;2023-02-12T04:17:13;20.33;;;13.18;;
49852;SDS011;35751;48.072;11.688;2023-02-12T04:22:44;20.70;;;12.40;;
49852;SDS011;35751;48.072;11.688;2023-02-12T04:25:15;22.67;;;12.70;;
49852;SDS011;35751;48.072;11.688;2023-02-12T04:30:44;21.30;;;12.40;;
49852;SDS011;35751;48.072;11.688;2023-02-12T04:33:16;20.48;;;12.90;;
49852;SDS011;35751;48.072;11.688;2023-02-12T04:35:47;22.42;;;12.57;;
49852;SDS011;35751;48.072;11.688;2023-02-12T04:38:18;22.02;;;13.18;;
49852;SDS011;35751;48.072;11.688;2023-02-12T04:40:50;20.67;;;12.30;;
49852;SDS011;35751;48.072;11.688;2023-02-12T04:43:26;20.67;;;12.73;;
49852;SDS011;35751;48.072;11.688;2023-02-12T04:45:52;20.63;;;12.00;;
49852;SDS011;35751;48.072;11.688;2023-02-12T04:48:17;19.33;;;10.77;;
49852;SDS011;35751;48.072;11.688;2023-02-12T04:50:44;22.02;;;13.45;;
49852;SDS011;35751;48.072;11.688;2023-02-12T04:53:10;19.42;;;12.20;;
49852;SDS011;35751;48.072;11.688;2023-02-12T04:55:36;20.02;;;10.23;;
49852;SDS011;35751;48.072;11.688;2023-02-12T04:58:02;17.02;;;11.88;;
49852;SDS011;35751;48.072;11.688;2023-02-12T05:00:27;19.85;;;11.15;;
49852;SDS011;35751;48.072;11.688;2023-02-12T05:02:52;20.23;;;11.98;;
49852;SDS011;35751;48.072;11.688;2023-02-12T05:05:18;23.20;;;12.40;;
49852;SDS011;35751;48.072;11.688;2023-02-12T05:07:43;22.75;;;12.23;;
49852;SDS011;35751;48.072;11.688;2023-02-12T05:10:09;21.98;;;12.80;;
49852;SDS011;35751;48.072;11.688;2023-02-12T05:12:35;21.17;;;12.35;;
49852;SDS011;35751;48.072;11.688;2023-02-12T05:15:01;22.50;;;11.63;;
49852;SDS011;35751;48.072;11.688;2023-02-12T05:17:26;21.92;;;12.45;;
49852;SDS011;35751;48.072;11.688;2023-02-12T05:19:51;30.70;;;14.90;;
49852;SDS011;35751;48.072;11.688;2023-02-12T05:22:17;22.77;;;12.30;;
49852;SDS011;35751;48.072;11.688;2023-02-12T05:24:42;21.98;;;12.05;;
49852;SDS011;35751;48.072;11.688;2023-02-12T05:27:08;21.50;;;12.10;;
49852;SDS011;35751;48.072;11.688;2023-02-12T05:29:36;19.92;;;12.07;;
49852;SDS011;35751;48.072;11.688;2023-02-12T05:32:02;16.60;;;10.93;;
49852;SDS011;35751;48.072;11.688;2023-02-12T05:34:27;19.92;;;12.13;;
49852;SDS011;35751;48.072;11.688;2023-02-12T05:36:53;23.67;;;12.48;;
49852;SDS011;35751;48.072;11.688;2023-02-12T05:39:18;19.38;;;12.10;;
49852;SDS011;35751;48.072;11.688;2023-02-12T05:41:44;22.55;;;12.25;;
49852;SDS011;35751;48.072;11.688;2023-02-12T05:44:09;21.75;;;12.45;;
49852;SDS011;35751;48.072;11.688;2023-02-12T05:46:39;17.63;;;12.10;;
49852;SDS011;35751;48.072;11.688;2023-02-12T05:49:06;18.80;;;11.82;;
49852;SDS011;35751;48.072;11.688;2023-02-12T05:51:31;21.60;;;12.25;;
49852;SDS011;35751;48.072;11.688;2023-02-12T05:53:58;20.48;;;12.18;;
49852;SDS011;35751;48.072;11.688;2023-02-12T05:56:35;21.35;;;11.02;;
49852;SDS011;35751;48.072;11.688;2023-02-12T05:59:07;23.95;;;12.75;;
49852;SDS011;35751;48.072;11.688;2023-02-12T06:01:38;22.85;;;12.48;;
49852;SDS011;35751;48.072;11.688;2023-02-12T06:04:06;20.00;;;13.05;;
49852;SDS011;35751;48.072;11.688;2023-02-12T06:06:33;21.35;;;13.68;;
49852;SDS011;35751;48.072;11.688;2023-02-12T06:08:59;21.73;;;12.20;;
49852;SDS011;35751;48.072;11.688;2023-02-12T06:11:25;20.40;;;12.40;;
49852;SDS011;35751;48.072;11.688;2023-02-12T06:13:51;20.50;;;11.80;;
49852;SDS011;35751;48.072;11.688;2023-02-12T06:16:21;21.48;;;12.43;;
49852;SDS011;35751;48.072;11.688;2023-02-12T06:18:51;22.33;;;12.95;;
49852;SDS011;35751;48.072;11.688;2023-02-12T06:21:18;21.02;;;12.05;;
49852;SDS011;35751;48.072;11.688;2023-02-12T06:23:46;19.25;;;12.38;;
49852;SDS011;35751;48.072;11.688;2023-02-12T06:26:12;19.25;;;11.35;;
49852;SDS011;35751;48.072;11.688;2023-02-12T06:28:42;17.85;;;10.63;;
49852;SDS011;35751;48.072;11.688;2023-02-12T06:31:24;20.83;;;11.20;;
49852;SDS011;35751;48.072;11.688;2023-02-12T06:33:52;19.17;;;11.10;;
49852;SDS011;35751;48.072;11.688;2023-02-12T06:36:19;15.95;;;10.05;;
49852;SDS011;35751;48.072;11.688;2023-02-12T06:38:46;19.40;;;12.00;;
49852;SDS011;35751;48.072;11.688;2023-02-12T06:41:12;19.92;;;11.15;;
49852;SDS011;35751;48.072;11.688;2023-02-12T06:43:37;19.20;;;10.43;;
49852;SDS011;35751;48.072;11.688;2023-02-12T06:46:04;22.73;;;13.10;;
49852;SDS011;35751;48.072;11.688;2023-02-12T06:48:30;18.67;;;11.27;;
49852;SDS011;35751;48.072;11.688;2023-02-12T06:50:55;22.13;;;11.77;;
49852;SDS011;35751;48.072;11.688;2023-02-12T06:53:22;24.83;;;12.85;;
49852;SDS011;35751;48.072;11.688;2023-02-12T06:55:48;21.33;;;12.35;;
49852;SDS011;35751;48.072;11.688;2023-02-12T06:58:13;23.05;;;13.05;;
49852;SDS011;35751;48.072;11.688;2023-02-12T07:00:40;18.13;;;11.35;;
49852;SDS011;35751;48.072;11.688;2023-02-12T07:03:06;15.88;;;10.82;;
49852;SDS011;35751;48.072;11.688;2023-02-12T07:05:32;18.02;;;11.95;;
49852;SDS011;35751;48.072;11.688;2023-02-12T07:08:01;21.35;;;11.48;;
49852;SDS011;35751;48.072;11.688;2023-02-12T07:10:27;21.35;;;11.93;;
49852;SDS011;35751;48.072;11.688;2023-02-12T07:12:53;21.85;;;13.18;;
49852;SDS011;35751;48.072;11.688;2023-02-12T07:15:19;21.63;;;11.93;;
49852;SDS011;35751;48.072;11.688;2023-02-12T07:17:45;21.63;;;12.57;;
49852;SDS011;35751;48.072;11.688;2023-02-12T07:20:11;21.48;;;12.43;;
49852;SDS011;35751;48.072;11.688;2023-02-12T07:22:37;22.83;;;12.50;;
49852;SDS011;35751;48.072;11.688;2023-02-12T07:25:04;19.15;;;12.10;;
49852;SDS011;35751;48.072;11.688;2023-02-12T07:27:35;24.27;;;14.25;;
49852;SDS011;35751;48.072;11.688;2023-02-12T07:30:02;24.60;;;13.82;;
49852;SDS011;35751;48.072;11.688;2023-02-12T07:32:32;21.83;;;14.68;;
49852;SDS011;35751;48.072;11.688;2023-02-12T07:34:58;24.30;;;14.75;;
49852;SDS011;35751;48.072;11.688;2023-02-12T07:37:24;26.75;;;15.63;;
49852;SDS011;35751;48.072;11.688;2023-02-12T07:39:50;29.98;;;17.20;;
49852;SDS011;35751;48.072;11.688;2023-02-12T07:42:17;29.33;;;17.48;;
49852;SDS011;35751;48.072;11.688;2023-02-12T07:44:45;27.13;;;16.60;;
49852;SDS011;35751;48.072;11.688;2023-02-12T07:47:11;26.75;;;14.68;;
49852;SDS011;35751;48.072;11.688;2023-02-12T07:49:37;22.08;;;14.50;;
49852;SDS011;35751;48.072;11.688;2023-02-12T07:52:04;28.52;;;16.85;;
49852;SDS011;35751;48.072;11.688;2023-02-12T07:54:30;30.65;;;16.65;;
49852;SDS011;35751;48.072;11.688;2023-02-12T07:56:55;27.42;;;15.20;;
49852;SDS011;35751;48.072;11.688;2023-02-12T07:59:22;25.45;;;14.80;;
49852;SDS011;35751;48.072;11.688;2023-02-12T08:01:48;22.38;;;13.65;;
49852;SDS011;35751;48.072;11.688;2023-02-12T08:04:20;23.55;;;13.90;;
49852;SDS011;35751;48.072;11.688;2023-02-12T08:06:48;21.77;;;14.05;;
49852;SDS011;35751;48.072;11.688;2023-02-12T08:09:16;24.52;;;14.65;;
49852;SDS011;35751;48.072;11.688;2023-02-12T08:11:43;28.35;;;15.77;;
49852;SDS011;35751;48.072;11.688;2023-02-12T08:14:11;24.08;;;14.43;;
49852;SDS011;35751;48.072;11.688;2023-02-12T08:16:39;27.67;;;16.77;;
49852;SDS011;35751;48.072;11.688;2023-02-12T08:19:05;28.45;;;16.35;;
49852;SDS011;35751;48.072;11.688;2023-02-12T08:21:31;29.13;;;16.63;;
49852;SDS011;35751;48.072;11.688;2023-02-12T08:23:57;27.30;;;16.25;;
49852;SDS011;35751;48.072;11.688;2023-02-12T08:26:24;29.38;;;16.33;;
49852;SDS011;35751;48.072;11.688;2023-02-12T08:28:54;28.55;;;16.00;;
49852;SDS011;35751;48.072;11.688;2023-02-12T08:31:24;31.65;;;17.77;;
49852;SDS011;35751;48.072;11.688;2023-02-12T08:33:51;28.33;;;16.98;;
49852;SDS011;35751;48.072;11.688;2023-02-12T08:36:19;31.08;;;16.77;;
49852;SDS011;35751;48.072;11.688;2023-02-12T08:38:47;29.33;;;16.73;;
49852;SDS011;35751;48.072;11.688;2023-02-12T08:41:17;30.98;;;17.42;;
49852;SDS011;35751;48.072;11.688;2023-02-12T08:43:47;33.33;;;17.58;;
49852;SDS011;35751;48.072;11.688;2023-02-12T08:46:15;29.98;;;16.40;;
49852;SDS011;35751;48.072;11.688;2023-02-12T08:48:46;30.65;;;16.58;;
49852;SDS011;35751;48.072;11.688;2023-02-12T08:51:16;30.17;;;17.05;;
49852;SDS011;35751;48.072;11.688;2023-02-12T08:53:44;26.73;;;14.90;;
49852;SDS011;35751;48.072;11.688;2023-02-12T08:56:11;28.23;;;15.95;;
49852;SDS011;35751;48.072;11.688;2023-02-12T08:58:38;26.23;;;15.10;;
49852;SDS011;35751;48.072;11.688;2023-02-12T09:01:08;23.33;;;14.73;;
49852;SDS011;35751;48.072;11.688;2023-02-12T09:03:36;26.50;;;14.27;;
49852;SDS011;35751;48.072;11.688;2023-02-12T09:06:03;27.40;;;14.02;;
49852;SDS011;35751;48.072;11.688;2023-02-12T09:08:30;20.88;;;13.13;;
49852;SDS011;35751;48.072;11.688;2023-02-12T09:10:56;25.02;;;13.93;;
49852;SDS011;35751;48.072;11.688;2023-02-12T09:13:22;29.52;;;15.60;;
49852;SDS011;35751;48.072;11.688;2023-02-12T09:15:48;27.05;;;15.32;;
49852;SDS011;35751;48.072;11.688;2023-02-12T09:18:15;21.48;;;13.35;;
49852;SDS011;35751;48.072;11.688;2023-02-12T09:20:42;22.02;;;14.20;;
49852;SDS011;35751;48.072;11.688;2023-02-12T09:23:09;21.58;;;12.45;;
49852;SDS011;35751;48.072;11.688;2023-02-12T09:25:40;26.50;;;14.05;;
49852;SDS011;35751;48.072;11.688;2023-02-12T09:28:10;23.60;;;12.90;;
49852;SDS011;35751;48.072;11.688;2023-02-12T09:30:38;17.83;;;10.00;;
49852;SDS011;35751;48.072;11.688;2023-02-12T09:33:05;17.25;;;9.93;;
49852;SDS011;35751;48.072;11.688;2023-02-12T09:35:35;17.73;;;10.52;;
49852;SDS011;35751;48.072;11.688;2023-02-12T09:38:02;17.15;;;10.60;;
49852;SDS011;35751;48.072;11.688;2023-02-12T09:40:39;17.63;;;11.00;;
49852;SDS011;35751;48.072;11.688;2023-02-12T09:45:56;18.65;;;10.32;;
49852;SDS011;35751;48.072;11.688;2023-02-12T09:51:01;16.05;;;9.13;;
49852;SDS011;35751;48.072;11.688;2023-02-12T09:53:31;12.07;;;6.78;;
49852;SDS011;35751;48.072;11.688;2023-02-12T09:56:00;9.77;;;6.30;;
49852;SDS011;35751;48.072;11.688;2023-02-12T09:58:45;11.80;;;7.55;;
49852;SDS011;35751;48.072;11.688;2023-02-12T10:01:18;12.48;;;6.57;;
49852;SDS011;35751;48.072;11.688;2023-02-12T10:03:46;11.23;;;5.97;;
49852;SDS011;35751;48.072;11.688;2023-02-12T10:06:15;8.10;;;5.28;;
49852;SDS011;35751;48.072;11.688;2023-02-12T10:17:39;9.85;;;6.60;;
49852;SDS011;35751;48.072;11.688;2023-02-12T10:20:26;9.57;;;5.30;;
49852;SDS011;35751;48.072;11.688;2023-02-12T10:25:49;8.50;;;4.50;;
49852;SDS011;35751;48.072;11.688;2023-02-12T10:28:19;6.57;;;4.32;;
49852;SDS011;35751;48.072;11.688;2023-02-12T10:33:34;5.88;;;3.47;;
49852;SDS011;35751;48.072;11.688;2023-02-12T10:36:17;6.95;;;4.07;;
49852;SDS011;35751;48.072;11.688;2023-02-12T10:39:06;6.28;;;4.00;;
49852;SDS011;35751;48.072;11.688;2023-02-12T10:41:59;5.88;;;3.90;;
49852;SDS011;35751;48.072;11.688;2023-02-12T10:44:37;4.95;;;3.00;;
49852;SDS011;35751;48.072;11.688;2023-02-12T10:47:04;4.53;;;2.83;;
49852;SDS011;35751;48.072;11.688;2023-02-12T10:49:33;6.25;;;3.08;;
49852;SDS011;35751;48.072;11.688;2023-02-12T10:52:03;4.60;;;3.17;;
49852;SDS011;35751;48.072;11.688;2023-02-12T10:54:35;7.00;;;3.90;;
49852;SDS011;35751;48.072;11.688;2023-02-12T10:59:47;6.75;;;3.67;;
49852;SDS011;35751;48.072;11.688;2023-02-12T11:04:45;7.55;;;4.43;;
49852;SDS011;35751;48.072;11.688;2023-02-12T11:07:11;8.68;;;4.85;;
49852;SDS011;35751;48.072;11.688;2023-02-12T11:09:39;7.18;;;4.68;;
49852;SDS011;35751;48.072;11.688;2023-02-12T11:12:33;7.47;;;4.75;;
49852;SDS011;35751;48.072;11.688;2023-02-12T11:15:15;7.80;;;3.90;;
49852;SDS011;35751;48.072;11.688;2023-02-12T11:17:59;7.15;;;4.30;;
49852;SDS011;35751;48.072;11.688;2023-02-12T11:23:30;5.47;;;3.10;;
49852;SDS011;35751;48.072;11.688;2023-02-12T11:26:01;7.13;;;3.90;;
49852;SDS011;35751;48.072;11.688;2023-02-12T11:28:58;6.32;;;3.78;;
49852;SDS011;35751;48.072;11.688;2023-02-12T11:31:29;7.03;;;3.78;;
49852;SDS011;35751;48.072;11.688;2023-02-12T11:37:10;8.20;;;4.07;;
49852;SDS011;35751;48.072;11.688;2023-02-12T11:39:30;8.18;;;4.13;;
49852;SDS011;35751;48.072;11.688;2023-02-12T11:44:39;7.95;;;4.25;;
49852;SDS011;35751;48.072;11.688;2023-02-12T11:47:09;6.47;;;3.65;;
49852;SDS011;35751;48.072;11.688;2023-02-12T11:49:51;5.07;;;3.55;;
49852;SDS011;35751;48.072;11.688;2023-02-12T11:52:20;8.13;;;4.38;;
49852;SDS011;35751;48.072;11.688;2023-02-12T11:54:49;12.10;;;5.65;;
49852;SDS011;35751;48.072;11.688;2023-02-12T12:00:11;4.28;;;2.75;;
49852;SDS011;35751;48.072;11.688;2023-02-12T12:02:44;6.55;;;2.92;;
49852;SDS011;35751;48.072;11.688;2023-02-12T12:05:18;5.80;;;2.70;;
49852;SDS011;35751;48.072;11.688;2023-02-12T12:07:49;4.65;;;2.45;;
49852;SDS011;35751;48.072;11.688;2023-02-12T12:10:30;4.75;;;2.80;;
49852;SDS011;35751;48.072;11.688;2023-02-12T12:13:02;6.50;;;2.42;;
49852;SDS011;35751;48.072;11.688;2023-02-12T12:15:34;3.85;;;2.13;;
49852;SDS011;35751;48.072;11.688;2023-02-12T12:21:54;3.15;;;1.90;;
49852;SDS011;35751;48.072;11.688;2023-02-12T12:26:52;3.60;;;2.42;;
49852;SDS011;35751;48.072;11.688;2023-02-12T12:31:58;3.60;;;2.20;;
49852;SDS011;35751;48.072;11.688;2023-02-12T12:34:26;4.20;;;2.65;;
49852;SDS011;35751;48.072;11.688;2023-02-12T12:48:21;1.73;;;1.30;;
49852;SDS011;35751;48.072;11.688;2023-02-12T12:51:05;1.48;;;1.30;;
49852;SDS011;35751;48.072;11.688;2023-02-12T13:24:32;5.35;;;2.85;;
49852;SDS011;35751;48.072;11.688;2023-02-12T13:27:14;58.45;;;39.50;;
49852;SDS011;35751;48.072;11.688;2023-02-12T13:30:46;6.25;;;3.67;;
49852;SDS011;35751;48.072;11.688;2023-02-12T13:32:44;3.03;;;1.90;;
49852;SDS011;35751;48.072;11.688;2023-02-12T13:35:18;4.68;;;2.25;;
49852;SDS011;35751;48.072;11.688;2023-02-12T13:37:49;4.80;;;2.95;;
49852;SDS011;35751;48.072;11.688;2023-02-12T13:40:19;6.88;;;3.85;;
49852;SDS011;35751;48.072;11.688;2023-02-12T13:42:58;5.70;;;3.78;;
49852;SDS011;35751;48.072;11.688;2023-02-12T13:45:39;8.48;;;4.85;;
49852;SDS011;35751;48.072;11.688;2023-02-12T13:56:56;6.30;;;3.88;;
49852;SDS011;35751;48.072;11.688;2023-02-12T14:02:13;8.52;;;5.00;;
49852;SDS011;35751;48.072;11.688;2023-02-12T14:04:58;5.70;;;3.42;;
49852;SDS011;35751;48.072;11.688;2023-02-12T14:07:39;5.82;;;3.63;;
49852;SDS011;35751;48.072;11.688;2023-02-12T14:10:06;6.45;;;3.85;;
49852;SDS011;35751;48.072;11.688;2023-02-12T14:12:35;5.63;;;3.47;;
49852;SDS011;35751;48.072;11.688;2023-02-12T14:30:45;6.93;;;4.50;;
49852;SDS011;35751;48.072;11.688;2023-02-12T14:33:47;11.38;;;7.22;;
49852;SDS011;35751;48.072;11.688;2023-02-12T14:41:48;27.58;;;25.08;;
49852;SDS011;35751;48.072;11.688;2023-02-12T14:49:25;22.23;;;20.13;;
49852;SDS011;35751;48.072;11.688;2023-02-12T14:52:01;11.93;;;6.78;;
49852;SDS011;35751;48.072;11.688;2023-02-12T14:54:42;9.95;;;5.97;;
49852;SDS011;35751;48.072;11.688;2023-02-12T15:02:33;11.82;;;6.72;;
49852;SDS011;35751;48.072;11.688;2023-02-12T15:05:13;8.57;;;4.75;;
49852;SDS011;35751;48.072;11.688;2023-02-12T15:07:58;9.90;;;5.80;;
49852;SDS011;35751;48.072;11.688;2023-02-12T15:10:29;9.52;;;5.93;;
49852;SDS011;35751;48.072;11.688;2023-02-12T15:26:48;9.00;;;6.00;;
49852;SDS011;35751;48.072;11.688;2023-02-12T15:29:29;11.32;;;5.43;;
49852;SDS011;35751;48.072;11.688;2023-02-12T15:31:58;10.15;;;5.25;;
49852;SDS011;35751;48.072;11.688;2023-02-12T15:34:30;9.70;;;5.70;;
49852;SDS011;35751;48.072;11.688;2023-02-12T15:36:59;12.60;;;6.47;;
49852;SDS011;35751;48.072;11.688;2023-02-12T15:39:26;10.85;;;6.40;;
49852;SDS011;35751;48.072;11.688;2023-02-12T15:42:00;12.70;;;6.68;;
49852;SDS011;35751;48.072;11.688;2023-02-12T15:44:27;12.52;;;5.72;;
49852;SDS011;35751;48.072;11.688;2023-02-12T15:49:34;11.27;;;5.78;;
49852;SDS011;35751;48.072;11.688;2023-02-12T15:52:02;9.07;;;4.70;;
49852;SDS011;35751;48.072;11.688;2023-02-12T15:54:35;12.93;;;5.70;;
49852;SDS011;35751;48.072;11.688;2023-02-12T15:57:08;11.48;;;6.15;;
49852;SDS011;35751;48.072;11.688;2023-02-12T15:59:38;15.38;;;6.57;;
49852;SDS011;35751;48.072;11.688;2023-02-12T16:02:16;8.68;;;5.35;;
49852;SDS011;35751;48.072;11.688;2023-02-12T16:04:46;10.25;;;5.22;;
49852;SDS011;35751;48.072;11.688;2023-02-12T16:07:12;9.90;;;5.70;;
49852;SDS011;35751;48.072;11.688;2023-02-12T16:09:39;9.90;;;5.75;;
49852;SDS011;35751;48.072;11.688;2023-02-12T16:12:06;8.40;;;5.78;;
49852;SDS011;35751;48.072;11.688;2023-02-12T16:14:57;8.38;;;5.50;;
49852;SDS011;35751;48.072;11.688;2023-02-12T16:17:27;9.00;;;4.55;;
49852;SDS011;35751;48.072;11.688;2023-02-12T16:20:00;8.32;;;4.90;;
49852;SDS011;35751;48.072;11.688;2023-02-12T16:22:37;11.02;;;5.82;;
49852;SDS011;35751;48.072;11.688;2023-02-12T16:25:11;8.75;;;5.70;;
49852;SDS011;35751;48.072;11.688;2023-02-12T16:27:40;9.48;;;6.10;;
49852;SDS011;35751;48.072;11.688;2023-02-12T16:30:22;21.23;;;10.18;;
49852;SDS011;35751;48.072;11.688;2023-02-12T16:32:55;35.20;;;20.30;;
49852;SDS011;35751;48.072;11.688;2023-02-12T16:37:51;12.82;;;7.43;;
49852;SDS011;35751;48.072;11.688;2023-02-12T16:40:24;12.70;;;9.60;;
49852;SDS011;35751;48.072;11.688;2023-02-12T16:48:01;13.95;;;9.85;;
49852;SDS011;35751;48.072;11.688;2023-02-12T16:50:32;21.48;;;16.80;;
49852;SDS011;35751;48.072;11.688;2023-02-12T16:53:07;13.98;;;10.07;;
49852;SDS011;35751;48.072;11.688;2023-02-12T16:55:47;12.93;;;8.48;;
49852;SDS011;35751;48.072;11.688;2023-02-12T16:58:13;14.68;;;8.13;;
49852;SDS011;35751;48.072;11.688;2023-02-12T17:00:38;16.75;;;9.32;;
49852;SDS011;35751;48.072;11.688;2023-02-12T17:03:04;14.15;;;8.30;;
49852;SDS011;35751;48.072;11.688;2023-02-12T17:05:30;16.35;;;8.25;;
49852;SDS011;35751;48.072;11.688;2023-02-12T17:07:55;20.02;;;10.85;;
49852;SDS011;35751;48.072;11.688;2023-02-12T17:10:21;11.98;;;7.47;;
49852;SDS011;35751;48.072;11.688;2023-02-12T17:12:47;17.05;;;10.07;;
49852;SDS011;35751;48.072;11.688;2023-02-12T17:15:24;16.83;;;8.45;;
49852;SDS011;35751;48.072;11.688;2023-02-12T17:17:52;16.08;;;8.27;;
49852;SDS011;35751;48.072;11.688;2023-02-12T17:20:18;16.40;;;10.23;;
49852;SDS011;35751;48.072;11.688;2023-02-12T17:22:48;20.13;;;10.90;;
49852;SDS011;35751;48.072;11.688;2023-02-12T17:25:15;20.25;;;12.05;;
49852;SDS011;35751;48.072;11.688;2023-02-12T17:27:41;27.40;;;20.10;;
49852;SDS011;35751;48.072;11.688;2023-02-12T17:30:07;17.70;;;8.70;;
49852;SDS011;35751;48.072;11.688;2023-02-12T17:32:34;14.25;;;8.40;;
49852;SDS011;35751;48.072;11.688;2023-02-12T17:35:00;12.73;;;8.27;;
49852;SDS011;35751;48.072;11.688;2023-02-12T17:37:25;15.20;;;8.20;;
49852;SDS011;35751;48.072;11.688;2023-02-12T17:39:51;15.20;;;8.15;;
49852;SDS011;35751;48.072;11.688;2023-02-12T17:42:16;18.60;;;9.73;;
49852;SDS011;35751;48.072;11.688;2023-02-12T17:44:42;20.42;;;10.65;;
49852;SDS011;35751;48.072;11.688;2023-02-12T17:47:07;19.80;;;11.10;;
49852;SDS011;35751;48.072;11.688;2023-02-12T17:49:33;20.65;;;12.27;;
49852;SDS011;35751;48.072;11.688;2023-02-12T17:51:59;18.70;;;9.95;;